createdAt,value
2019-03-19T00:00:01.692Z,55.00
2019-03-19T00:00:32.931Z,55.00
2019-03-19T00:01:04.147Z,55.00
2019-03-19T00:01:35.342Z,54.90
2019-03-19T00:02:06.790Z,54.90
2019-03-19T00:02:38.387Z,55.00
2019-03-19T00:03:09.592Z,54.90
2019-03-19T00:03:41.209Z,54.90
2019-03-19T00:04:12.747Z,54.90
2019-03-19T00:04:43.923Z,54.80
2019-03-19T00:05:15.107Z,54.80
2019-03-19T00:05:46.301Z,54.80
2019-03-19T00:06:17.476Z,54.80
2019-03-19T00:06:48.657Z,54.80
2019-03-19T00:07:19.925Z,54.80
2019-03-19T00:07:51.192Z,54.80
2019-03-19T00:08:22.733Z,54.80
2019-03-19T00:08:53.918Z,54.90
2019-03-19T00:09:25.479Z,54.80
2019-03-19T00:09:56.652Z,54.80
2019-03-19T00:10:27.830Z,54.80
2019-03-19T00:10:59.009Z,54.80
2019-03-19T00:11:30.265Z,54.90
2019-03-19T00:12:01.469Z,54.80
2019-03-19T00:12:32.646Z,54.80
2019-03-19T00:13:04.211Z,54.80
2019-03-19T00:13:35.393Z,54.90
2019-03-19T00:14:06.570Z,54.80
2019-03-19T00:14:37.750Z,54.80
2019-03-19T00:15:08.985Z,54.90
2019-03-19T00:15:40.478Z,54.80
2019-03-19T00:16:11.666Z,54.90
2019-03-19T00:16:42.842Z,54.80
2019-03-19T00:17:14.027Z,54.80
2019-03-19T00:17:45.507Z,54.80
2019-03-19T00:18:16.762Z,54.80
2019-03-19T00:18:48.284Z,54.90
2019-03-19T00:19:19.480Z,54.80
2019-03-19T00:19:50.939Z,54.80
2019-03-19T00:20:22.137Z,54.80
2019-03-19T00:20:53.683Z,54.90
2019-03-19T00:21:24.907Z,54.80
2019-03-19T00:21:56.139Z,54.80
2019-03-19T00:22:27.314Z,54.90
2019-03-19T00:22:58.515Z,54.90
2019-03-19T00:23:29.683Z,54.90
2019-03-19T00:24:01.216Z,54.90
2019-03-19T00:24:32.855Z,54.90
2019-03-19T00:25:04.396Z,54.90
2019-03-19T00:25:35.588Z,54.90
2019-03-19T00:26:06.914Z,54.90
2019-03-19T00:26:38.629Z,54.80
2019-03-19T00:27:09.813Z,54.80
2019-03-19T00:27:40.995Z,54.80
2019-03-19T00:28:12.221Z,55.50
2019-03-19T00:28:43.402Z,54.80
2019-03-19T00:29:14.869Z,54.80
2019-03-19T00:29:46.111Z,55.50
2019-03-19T00:30:17.288Z,54.70
2019-03-19T00:30:48.771Z,54.70
2019-03-19T00:31:19.988Z,54.70
2019-03-19T00:31:51.280Z,54.70
2019-03-19T00:32:22.457Z,54.70
2019-03-19T00:32:54.035Z,54.70
2019-03-19T00:33:25.573Z,54.80
2019-03-19T00:33:57.041Z,54.70
2019-03-19T00:34:28.223Z,54.70
2019-03-19T00:34:59.402Z,54.70
2019-03-19T00:35:30.896Z,54.70
2019-03-19T00:36:02.082Z,54.70
2019-03-19T00:36:33.303Z,54.70
2019-03-19T00:37:04.506Z,54.70
2019-03-19T00:37:35.686Z,54.80
2019-03-19T00:38:06.878Z,54.70
2019-03-19T00:38:38.128Z,54.90
2019-03-19T00:39:09.616Z,54.70
2019-03-19T00:39:40.802Z,54.70
2019-03-19T00:40:11.988Z,54.80
2019-03-19T00:40:43.187Z,54.80
2019-03-19T00:41:14.359Z,54.80
2019-03-19T00:41:45.929Z,54.90
2019-03-19T00:42:17.115Z,54.70
2019-03-19T00:42:48.284Z,54.80
2019-03-19T00:43:19.483Z,54.70
2019-03-19T00:43:50.777Z,54.70
2019-03-19T00:44:21.947Z,54.70
2019-03-19T00:44:53.138Z,54.80
2019-03-19T00:45:24.305Z,54.80
2019-03-19T00:45:55.484Z,54.70
2019-03-19T00:46:26.674Z,54.70
2019-03-19T00:46:57.920Z,54.70
2019-03-19T00:47:29.534Z,54.90
2019-03-19T00:48:00.941Z,54.70
2019-03-19T00:48:32.116Z,54.70
2019-03-19T00:49:03.303Z,54.70
2019-03-19T00:49:34.776Z,54.70
2019-03-19T00:50:06.318Z,54.70
2019-03-19T00:50:37.508Z,54.60
2019-03-19T00:51:08.725Z,54.60
2019-03-19T00:51:39.908Z,54.60
2019-03-19T00:52:11.085Z,54.60
2019-03-19T00:52:42.268Z,54.60
2019-03-19T00:53:13.437Z,54.60
2019-03-19T00:53:44.934Z,54.70
2019-03-19T00:54:16.325Z,54.60
2019-03-19T00:54:47.919Z,54.60
2019-03-19T00:55:19.114Z,54.60
2019-03-19T00:55:50.585Z,54.60
2019-03-19T00:56:21.834Z,54.60
2019-03-19T00:56:53.100Z,54.60
2019-03-19T00:57:24.271Z,54.60
2019-03-19T00:57:55.465Z,54.60
2019-03-19T00:58:26.662Z,54.60
2019-03-19T00:58:57.838Z,54.60
2019-03-19T00:59:29.010Z,54.50
2019-03-19T01:00:00.316Z,54.50
2019-03-19T01:00:31.578Z,54.50
2019-03-19T01:01:02.762Z,54.50
2019-03-19T01:01:33.931Z,54.50
2019-03-19T01:02:05.102Z,54.50
2019-03-19T01:02:36.322Z,54.50
2019-03-19T01:03:07.839Z,54.50
2019-03-19T01:03:39.375Z,54.50
2019-03-19T01:04:10.571Z,54.50
2019-03-19T01:04:41.768Z,54.50
2019-03-19T01:05:13.007Z,54.50
2019-03-19T01:05:44.183Z,54.50
2019-03-19T01:06:15.359Z,54.50
2019-03-19T01:06:46.537Z,54.60
2019-03-19T01:07:17.747Z,54.50
2019-03-19T01:07:48.940Z,54.50
2019-03-19T01:08:20.135Z,54.50
2019-03-19T01:08:51.307Z,54.50
2019-03-19T01:09:22.489Z,54.50
2019-03-19T01:09:53.776Z,54.50
2019-03-19T01:10:24.959Z,54.50
2019-03-19T01:10:56.128Z,54.50
2019-03-19T01:11:27.308Z,55.20
2019-03-19T01:11:58.785Z,54.60
2019-03-19T01:12:30.040Z,54.60
2019-03-19T01:13:01.273Z,54.60
2019-03-19T01:13:32.449Z,54.60
2019-03-19T01:14:03.625Z,54.60
2019-03-19T01:14:34.817Z,54.60
2019-03-19T01:15:06.318Z,54.60
2019-03-19T01:15:37.549Z,54.60
2019-03-19T01:16:09.062Z,54.50
2019-03-19T01:16:40.593Z,54.50
2019-03-19T01:17:12.137Z,54.50
2019-03-19T01:17:43.394Z,54.50
2019-03-19T01:18:14.578Z,54.70
2019-03-19T01:18:45.782Z,54.40
2019-03-19T01:19:16.963Z,54.50
2019-03-19T01:19:48.140Z,54.40
2019-03-19T01:20:19.320Z,54.40
2019-03-19T01:20:50.492Z,54.40
2019-03-19T01:21:21.658Z,54.40
2019-03-19T01:21:53.119Z,54.30
2019-03-19T01:22:24.332Z,54.90
2019-03-19T01:22:55.510Z,54.40
2019-03-19T01:23:27.053Z,55.00
2019-03-19T01:23:58.228Z,54.40
2019-03-19T01:24:29.410Z,54.30
2019-03-19T01:25:00.627Z,55.00
2019-03-19T01:25:31.868Z,54.30
2019-03-19T01:26:03.047Z,54.30
2019-03-19T01:26:34.247Z,54.30
2019-03-19T01:27:05.423Z,54.30
2019-03-19T01:27:36.679Z,54.30
2019-03-19T01:28:07.933Z,54.30
2019-03-19T01:28:39.114Z,54.30
2019-03-19T01:29:10.312Z,54.30
2019-03-19T01:29:41.492Z,54.30
2019-03-19T01:30:12.667Z,54.30
2019-03-19T01:30:43.884Z,54.30
2019-03-19T01:31:15.088Z,54.30
2019-03-19T01:31:46.264Z,54.30
2019-03-19T01:32:17.829Z,54.40
2019-03-19T01:32:49.013Z,54.30
2019-03-19T01:33:20.189Z,54.30
2019-03-19T01:33:51.376Z,54.30
2019-03-19T01:34:22.557Z,54.30
2019-03-19T01:34:53.768Z,54.30
2019-03-19T01:35:24.975Z,54.30
2019-03-19T01:35:56.221Z,54.30
2019-03-19T01:36:27.419Z,54.30
2019-03-19T01:36:58.962Z,54.20
2019-03-19T01:37:30.141Z,54.20
2019-03-19T01:38:01.325Z,54.20
2019-03-19T01:38:32.559Z,54.30
2019-03-19T01:39:03.793Z,54.20
2019-03-19T01:39:35.371Z,54.20
2019-03-19T01:40:06.531Z,54.20
2019-03-19T01:40:37.706Z,54.20
2019-03-19T01:41:08.883Z,54.20
2019-03-19T01:41:40.067Z,54.20
2019-03-19T01:42:11.251Z,54.20
2019-03-19T01:42:42.413Z,54.20
2019-03-19T01:43:13.595Z,54.20
2019-03-19T01:43:44.804Z,54.20
2019-03-19T01:44:15.979Z,54.20
2019-03-19T01:44:47.158Z,54.20
2019-03-19T01:45:18.333Z,54.20
2019-03-19T01:45:49.507Z,54.20
2019-03-19T01:46:20.687Z,54.20
2019-03-19T01:46:51.863Z,54.20
2019-03-19T01:47:23.395Z,54.20
2019-03-19T01:47:54.656Z,54.20
2019-03-19T01:48:25.826Z,54.30
2019-03-19T01:48:57.043Z,54.20
2019-03-19T01:49:28.222Z,54.20
2019-03-19T01:49:59.767Z,54.20
2019-03-19T01:50:30.969Z,54.20
2019-03-19T01:51:02.465Z,54.20
2019-03-19T01:51:33.696Z,54.20
2019-03-19T01:52:04.881Z,54.30
2019-03-19T01:52:36.337Z,54.20
2019-03-19T01:53:07.592Z,54.90
2019-03-19T01:53:39.113Z,54.20
2019-03-19T01:54:10.673Z,54.20
2019-03-19T01:54:42.189Z,54.20
2019-03-19T01:55:13.385Z,54.30
2019-03-19T01:55:44.572Z,54.20
2019-03-19T01:56:15.766Z,54.30
2019-03-19T01:56:46.964Z,54.30
2019-03-19T01:57:18.193Z,54.30
2019-03-19T01:57:49.370Z,54.30
2019-03-19T01:58:20.550Z,54.30
2019-03-19T01:58:51.770Z,54.30
2019-03-19T01:59:23.009Z,54.30
2019-03-19T01:59:54.245Z,54.30
2019-03-19T02:00:25.866Z,54.40
2019-03-19T02:00:57.025Z,54.30
2019-03-19T02:01:28.207Z,54.20
2019-03-19T02:01:59.384Z,54.20
2019-03-19T02:02:30.567Z,54.30
2019-03-19T02:03:01.756Z,54.20
2019-03-19T02:03:33.010Z,54.20
2019-03-19T02:04:04.480Z,54.10
2019-03-19T02:04:35.642Z,54.20
2019-03-19T02:05:06.832Z,54.10
2019-03-19T02:05:38.031Z,54.10
2019-03-19T02:06:09.531Z,54.20
2019-03-19T02:06:41.042Z,54.10
2019-03-19T02:07:12.271Z,54.10
2019-03-19T02:07:43.536Z,54.10
2019-03-19T02:08:14.724Z,54.10
2019-03-19T02:08:45.895Z,54.10
2019-03-19T02:09:17.439Z,54.10
2019-03-19T02:09:48.617Z,54.00
2019-03-19T02:10:20.110Z,54.00
2019-03-19T02:10:51.289Z,54.00
2019-03-19T02:11:22.560Z,54.00
2019-03-19T02:11:54.105Z,54.00
2019-03-19T02:12:25.293Z,54.00
2019-03-19T02:12:56.464Z,54.00
2019-03-19T02:13:27.661Z,54.10
2019-03-19T02:13:58.838Z,54.10
2019-03-19T02:14:30.011Z,54.10
2019-03-19T02:15:01.189Z,54.10
2019-03-19T02:15:32.419Z,54.10
2019-03-19T02:16:03.586Z,54.10
2019-03-19T02:16:34.770Z,54.10
2019-03-19T02:17:06.063Z,54.10
2019-03-19T02:17:37.245Z,54.10
2019-03-19T02:18:08.421Z,54.10
2019-03-19T02:18:39.601Z,54.10
2019-03-19T02:19:10.850Z,54.10
2019-03-19T02:19:42.079Z,54.10
2019-03-19T02:20:13.258Z,54.10
2019-03-19T02:20:44.438Z,54.00
2019-03-19T02:21:15.675Z,54.10
2019-03-19T02:21:46.878Z,54.10
2019-03-19T02:22:18.430Z,54.20
2019-03-19T02:22:49.969Z,54.20
2019-03-19T02:23:21.145Z,54.20
2019-03-19T02:23:52.315Z,54.20
2019-03-19T02:24:23.560Z,54.20
2019-03-19T02:24:54.804Z,54.20
2019-03-19T02:25:25.982Z,54.10
2019-03-19T02:25:57.158Z,54.10
2019-03-19T02:26:28.374Z,54.10
2019-03-19T02:26:59.599Z,54.10
2019-03-19T02:27:30.783Z,54.00
2019-03-19T02:28:01.956Z,54.10
2019-03-19T02:28:33.179Z,54.00
2019-03-19T02:29:04.414Z,54.10
2019-03-19T02:29:35.884Z,54.00
2019-03-19T02:30:07.421Z,54.00
2019-03-19T02:30:39.001Z,54.00
2019-03-19T02:31:10.285Z,54.00
2019-03-19T02:31:41.474Z,53.90
2019-03-19T02:32:12.760Z,54.00
2019-03-19T02:32:44.037Z,53.90
2019-03-19T02:33:15.320Z,54.00
2019-03-19T02:33:46.497Z,53.90
2019-03-19T02:34:17.677Z,54.00
2019-03-19T02:34:48.885Z,54.60
2019-03-19T02:35:20.074Z,54.00
2019-03-19T02:35:51.253Z,54.00
2019-03-19T02:36:22.431Z,54.00
2019-03-19T02:36:53.609Z,54.00
2019-03-19T02:37:24.795Z,54.00
2019-03-19T02:37:56.033Z,54.00
2019-03-19T02:38:27.347Z,54.00
2019-03-19T02:38:58.522Z,54.10
2019-03-19T02:39:29.705Z,54.00
2019-03-19T02:40:00.895Z,54.00
2019-03-19T02:40:32.071Z,54.00
2019-03-19T02:41:03.311Z,54.00
2019-03-19T02:41:34.510Z,54.00
2019-03-19T02:42:05.691Z,54.00
2019-03-19T02:42:36.876Z,54.10
2019-03-19T02:43:08.338Z,54.00
2019-03-19T02:43:39.521Z,54.10
2019-03-19T02:44:10.712Z,54.00
2019-03-19T02:44:42.232Z,54.00
2019-03-19T02:45:13.423Z,54.00
2019-03-19T02:45:44.605Z,54.10
2019-03-19T02:46:15.798Z,54.00
2019-03-19T02:46:46.963Z,54.10
2019-03-19T02:47:18.164Z,54.00
2019-03-19T02:47:49.338Z,54.00
2019-03-19T02:48:20.513Z,54.10
2019-03-19T02:48:51.723Z,54.00
2019-03-19T02:49:23.325Z,54.00
2019-03-19T02:49:54.498Z,54.00
2019-03-19T02:50:25.707Z,53.90
2019-03-19T02:50:56.870Z,53.90
2019-03-19T02:51:28.059Z,53.90
2019-03-19T02:51:59.303Z,53.80
2019-03-19T02:52:30.544Z,54.40
2019-03-19T02:53:01.745Z,53.80
2019-03-19T02:53:32.923Z,53.80
2019-03-19T02:54:04.108Z,53.80
2019-03-19T02:54:35.349Z,53.80
2019-03-19T02:55:06.528Z,53.80
2019-03-19T02:55:37.735Z,53.80
2019-03-19T02:56:08.941Z,53.80
2019-03-19T02:56:40.148Z,53.90
2019-03-19T02:57:11.322Z,53.90
2019-03-19T02:57:42.856Z,53.90
2019-03-19T02:58:14.034Z,53.90
2019-03-19T02:58:45.201Z,53.80
2019-03-19T02:59:16.383Z,53.80
2019-03-19T02:59:47.569Z,53.80
2019-03-19T03:00:18.746Z,53.80
2019-03-19T03:00:49.918Z,53.80
2019-03-19T03:01:21.126Z,53.80
2019-03-19T03:01:52.327Z,53.90
2019-03-19T03:02:23.507Z,53.90
2019-03-19T03:02:54.681Z,53.80
2019-03-19T03:03:25.989Z,53.90
2019-03-19T03:03:57.167Z,53.90
2019-03-19T03:04:28.345Z,53.90
2019-03-19T03:04:59.522Z,53.80
2019-03-19T03:05:31.127Z,53.90
2019-03-19T03:06:02.326Z,53.90
2019-03-19T03:06:33.530Z,53.90
2019-03-19T03:07:04.727Z,53.90
2019-03-19T03:07:35.919Z,53.90
2019-03-19T03:08:07.091Z,53.90
2019-03-19T03:08:38.370Z,53.90
2019-03-19T03:09:09.637Z,53.90
2019-03-19T03:09:40.919Z,53.80
2019-03-19T03:10:12.466Z,53.80
2019-03-19T03:10:43.680Z,53.80
2019-03-19T03:11:14.858Z,53.80
2019-03-19T03:11:46.032Z,53.80
2019-03-19T03:12:17.233Z,53.80
2019-03-19T03:12:48.464Z,53.70
2019-03-19T03:13:19.644Z,53.70
2019-03-19T03:13:50.830Z,53.70
2019-03-19T03:14:22.022Z,53.70
2019-03-19T03:14:53.196Z,53.80
2019-03-19T03:15:24.373Z,53.70
2019-03-19T03:15:55.557Z,53.70
2019-03-19T03:16:26.744Z,53.70
2019-03-19T03:16:57.918Z,53.80
2019-03-19T03:17:29.085Z,53.70
2019-03-19T03:18:00.594Z,53.80
2019-03-19T03:18:31.769Z,53.70
2019-03-19T03:19:02.963Z,53.70
2019-03-19T03:19:34.201Z,53.70
2019-03-19T03:20:05.383Z,53.70
2019-03-19T03:20:36.959Z,53.80
2019-03-19T03:21:08.166Z,53.80
2019-03-19T03:21:39.343Z,53.80
2019-03-19T03:22:10.536Z,54.20
2019-03-19T03:22:41.777Z,53.80
2019-03-19T03:23:13.218Z,53.80
2019-03-19T03:23:44.475Z,53.80
2019-03-19T03:24:15.991Z,53.80
2019-03-19T03:24:47.203Z,53.80
2019-03-19T03:25:18.387Z,53.80
2019-03-19T03:25:49.564Z,53.80
2019-03-19T03:26:20.745Z,53.70
2019-03-19T03:26:51.916Z,53.70
2019-03-19T03:27:23.098Z,53.80
2019-03-19T03:27:54.615Z,53.80
2019-03-19T03:28:25.799Z,53.80
2019-03-19T03:28:56.987Z,53.70
2019-03-19T03:29:28.258Z,53.70
2019-03-19T03:29:59.445Z,53.70
2019-03-19T03:30:30.629Z,53.70
2019-03-19T03:31:01.810Z,53.70
2019-03-19T03:31:33.000Z,53.80
2019-03-19T03:32:04.232Z,53.80
2019-03-19T03:32:35.405Z,53.70
2019-03-19T03:33:06.621Z,53.70
2019-03-19T03:33:38.093Z,53.70
2019-03-19T03:34:09.302Z,53.70
2019-03-19T03:34:40.474Z,53.70
2019-03-19T03:35:11.666Z,53.70
2019-03-19T03:35:42.896Z,53.60
2019-03-19T03:36:14.088Z,53.60
2019-03-19T03:36:45.271Z,53.60
2019-03-19T03:37:16.469Z,53.60
2019-03-19T03:37:47.649Z,53.60
2019-03-19T03:38:18.815Z,53.60
2019-03-19T03:38:50.035Z,53.60
2019-03-19T03:39:21.221Z,53.60
2019-03-19T03:39:52.417Z,53.60
2019-03-19T03:40:23.608Z,53.60
2019-03-19T03:40:55.125Z,53.60
2019-03-19T03:41:26.324Z,53.70
2019-03-19T03:41:57.563Z,53.60
2019-03-19T03:42:28.769Z,53.60
2019-03-19T03:42:59.956Z,53.70
2019-03-19T03:43:31.138Z,53.60
2019-03-19T03:44:02.324Z,53.60
2019-03-19T03:44:33.505Z,53.60
2019-03-19T03:45:04.690Z,53.60
2019-03-19T03:45:35.849Z,53.60
2019-03-19T03:46:07.046Z,53.60
2019-03-19T03:46:38.289Z,53.60
2019-03-19T03:47:09.540Z,53.60
2019-03-19T03:47:40.747Z,53.60
2019-03-19T03:48:11.920Z,53.60
2019-03-19T03:48:43.097Z,53.60
2019-03-19T03:49:14.383Z,53.60
2019-03-19T03:49:45.604Z,53.60
2019-03-19T03:50:17.107Z,53.60
2019-03-19T03:50:48.353Z,53.60
2019-03-19T03:51:19.881Z,53.60
2019-03-19T03:51:51.069Z,53.60
2019-03-19T03:52:22.257Z,53.60
2019-03-19T03:52:53.439Z,53.60
2019-03-19T03:53:24.628Z,53.60
2019-03-19T03:53:55.799Z,53.70
2019-03-19T03:54:27.002Z,53.60
2019-03-19T03:54:58.175Z,53.60
2019-03-19T03:55:31.194Z,53.70
2019-03-19T03:56:02.260Z,53.70
2019-03-19T03:56:33.445Z,53.70
2019-03-19T03:57:04.635Z,53.60
2019-03-19T03:57:36.082Z,53.60
2019-03-19T03:58:07.255Z,53.70
2019-03-19T03:58:38.432Z,53.70
2019-03-19T03:59:09.624Z,53.60
2019-03-19T03:59:40.822Z,53.60
2019-03-19T04:00:12.405Z,53.60
2019-03-19T04:00:43.586Z,53.60
2019-03-19T04:01:14.775Z,53.60
2019-03-19T04:01:45.942Z,53.60
2019-03-19T04:02:17.146Z,53.50
2019-03-19T04:02:48.346Z,53.60
2019-03-19T04:03:19.702Z,53.60
2019-03-19T04:03:50.884Z,53.50
2019-03-19T04:04:22.119Z,53.60
2019-03-19T04:04:53.299Z,53.60
2019-03-19T04:05:24.807Z,53.60
2019-03-19T04:05:55.999Z,53.60
2019-03-19T04:06:28.999Z,53.60
2019-03-19T04:07:00.206Z,53.50
2019-03-19T04:07:31.428Z,53.50
2019-03-19T04:08:02.662Z,53.60
2019-03-19T04:08:33.831Z,53.50
2019-03-19T04:09:05.100Z,53.50
2019-03-19T04:09:36.338Z,53.50
2019-03-19T04:10:07.576Z,53.50
2019-03-19T04:10:38.751Z,53.50
2019-03-19T04:11:09.953Z,53.50
2019-03-19T04:11:41.144Z,53.50
2019-03-19T04:12:12.400Z,53.50
2019-03-19T04:12:43.568Z,53.50
2019-03-19T04:13:14.757Z,53.50
2019-03-19T04:13:45.936Z,53.50
2019-03-19T04:14:17.113Z,53.50
2019-03-19T04:14:48.301Z,53.50
2019-03-19T04:15:19.500Z,53.50
2019-03-19T04:15:50.735Z,53.50
2019-03-19T04:16:21.945Z,53.50
2019-03-19T04:16:53.153Z,53.60
2019-03-19T04:17:24.662Z,53.50
2019-03-19T04:17:55.899Z,53.50
2019-03-19T04:18:27.182Z,53.50
2019-03-19T04:18:58.461Z,53.50
2019-03-19T04:19:29.649Z,53.50
2019-03-19T04:20:00.901Z,53.50
2019-03-19T04:20:32.477Z,53.40
2019-03-19T04:21:03.943Z,53.50
2019-03-19T04:21:35.169Z,53.40
2019-03-19T04:22:06.391Z,53.40
2019-03-19T04:22:37.574Z,53.40
2019-03-19T04:23:08.788Z,53.40
2019-03-19T04:23:39.971Z,53.50
2019-03-19T04:24:11.163Z,53.40
2019-03-19T04:24:42.411Z,53.40
2019-03-19T04:25:13.625Z,53.40
2019-03-19T04:25:44.856Z,53.50
2019-03-19T04:26:16.342Z,53.40
2019-03-19T04:26:47.603Z,53.40
2019-03-19T04:27:18.797Z,53.50
2019-03-19T04:27:50.045Z,53.30
2019-03-19T04:28:21.256Z,53.40
2019-03-19T04:28:52.452Z,53.40
2019-03-19T04:29:23.696Z,53.40
2019-03-19T04:29:54.921Z,53.40
2019-03-19T04:30:26.155Z,53.50
2019-03-19T04:30:57.416Z,53.40
2019-03-19T04:31:28.596Z,53.40
2019-03-19T04:32:00.091Z,53.40
2019-03-19T04:32:31.268Z,53.40
2019-03-19T04:33:02.473Z,53.40
2019-03-19T04:33:33.994Z,53.40
2019-03-19T04:34:05.240Z,53.40
2019-03-19T04:34:36.424Z,53.40
2019-03-19T04:35:07.607Z,53.40
2019-03-19T04:35:38.787Z,53.30
2019-03-19T04:36:09.962Z,53.50
2019-03-19T04:36:41.495Z,53.40
2019-03-19T04:37:12.728Z,53.40
2019-03-19T04:37:44.261Z,53.40
2019-03-19T04:38:15.483Z,53.40
2019-03-19T04:38:46.681Z,53.40
2019-03-19T04:39:17.869Z,53.40
2019-03-19T04:39:49.045Z,53.40
2019-03-19T04:40:20.263Z,53.40
2019-03-19T04:40:51.438Z,53.30
2019-03-19T04:41:22.646Z,53.30
2019-03-19T04:41:53.862Z,53.40
2019-03-19T04:42:25.051Z,53.30
2019-03-19T04:42:56.231Z,53.30
2019-03-19T04:43:27.453Z,53.30
2019-03-19T04:43:58.686Z,53.30
2019-03-19T04:44:30.179Z,53.30
2019-03-19T04:45:01.367Z,53.30
2019-03-19T04:45:32.534Z,53.30
2019-03-19T04:46:03.710Z,53.30
2019-03-19T04:46:34.897Z,53.30
2019-03-19T04:47:06.084Z,53.30
2019-03-19T04:47:37.262Z,53.40
2019-03-19T04:48:08.447Z,53.30
2019-03-19T04:48:39.664Z,53.30
2019-03-19T04:49:10.843Z,53.30
2019-03-19T04:49:42.031Z,53.40
2019-03-19T04:50:13.200Z,53.40
2019-03-19T04:50:44.403Z,53.30
2019-03-19T04:51:15.580Z,53.40
2019-03-19T04:51:47.875Z,53.30
2019-03-19T04:52:19.016Z,53.30
2019-03-19T04:52:50.203Z,53.20
2019-03-19T04:53:24.139Z,53.30
2019-03-19T04:53:54.664Z,53.20
2019-03-19T04:54:25.860Z,53.30
2019-03-19T04:54:57.060Z,53.20
2019-03-19T04:55:28.244Z,53.30
2019-03-19T04:55:59.444Z,53.30
2019-03-19T04:56:30.612Z,53.20
2019-03-19T04:57:01.783Z,53.20
2019-03-19T04:57:32.965Z,53.20
2019-03-19T04:58:04.141Z,53.30
2019-03-19T04:58:35.336Z,53.20
2019-03-19T04:59:06.547Z,53.30
2019-03-19T04:59:37.740Z,53.20
2019-03-19T05:00:08.911Z,53.30
2019-03-19T05:00:40.109Z,54.00
2019-03-19T05:01:11.288Z,53.30
2019-03-19T05:01:42.497Z,53.30
2019-03-19T05:02:14.046Z,53.30
2019-03-19T05:02:45.231Z,53.30
2019-03-19T05:03:16.442Z,53.30
2019-03-19T05:03:47.629Z,53.40
2019-03-19T05:04:18.814Z,53.40
2019-03-19T05:04:51.128Z,53.30
2019-03-19T05:05:22.327Z,53.30
2019-03-19T05:05:53.515Z,53.30
2019-03-19T05:06:25.008Z,53.20
2019-03-19T05:06:56.184Z,53.20
2019-03-19T05:07:27.473Z,53.20
2019-03-19T05:07:58.651Z,53.20
2019-03-19T05:08:29.827Z,53.20
2019-03-19T05:09:01.383Z,53.20
2019-03-19T05:09:32.566Z,53.20
2019-03-19T05:10:03.790Z,53.20
2019-03-19T05:10:35.170Z,53.20
2019-03-19T05:11:06.724Z,53.20
2019-03-19T05:11:37.967Z,53.20
2019-03-19T05:12:09.139Z,53.30
2019-03-19T05:12:40.603Z,53.20
2019-03-19T05:13:11.776Z,53.20
2019-03-19T05:13:42.948Z,53.20
2019-03-19T05:14:14.132Z,53.20
2019-03-19T05:14:45.296Z,53.30
2019-03-19T05:15:16.494Z,53.20
2019-03-19T05:15:47.700Z,53.20
2019-03-19T05:16:19.260Z,53.20
2019-03-19T05:16:50.436Z,53.20
2019-03-19T05:17:21.612Z,53.20
2019-03-19T05:17:52.787Z,53.20
2019-03-19T05:18:23.992Z,53.20
2019-03-19T05:18:55.168Z,53.20
2019-03-19T05:19:26.424Z,53.30
2019-03-19T05:19:57.629Z,53.30
2019-03-19T05:20:29.196Z,53.30
2019-03-19T05:21:00.374Z,53.30
2019-03-19T05:21:31.544Z,53.30
2019-03-19T05:22:02.733Z,53.30
2019-03-19T05:22:34.330Z,53.30
2019-03-19T05:23:05.876Z,53.20
2019-03-19T05:23:37.409Z,53.20
2019-03-19T05:24:08.589Z,53.20
2019-03-19T05:24:39.784Z,53.20
2019-03-19T05:25:10.964Z,53.20
2019-03-19T05:25:42.189Z,53.30
2019-03-19T05:26:13.373Z,53.20
2019-03-19T05:26:44.554Z,53.80
2019-03-19T05:27:15.739Z,53.20
2019-03-19T05:27:46.918Z,53.20
2019-03-19T05:28:18.092Z,53.10
2019-03-19T05:28:49.263Z,53.10
2019-03-19T05:29:20.434Z,53.20
2019-03-19T05:29:51.637Z,53.20
2019-03-19T05:30:22.853Z,53.20
2019-03-19T05:30:54.048Z,53.00
2019-03-19T05:31:25.695Z,53.10
2019-03-19T05:31:56.873Z,53.70
2019-03-19T05:32:28.133Z,53.10
2019-03-19T05:32:59.316Z,53.10
2019-03-19T05:33:30.823Z,53.50
2019-03-19T05:34:01.995Z,53.70
2019-03-19T05:34:33.178Z,53.10
2019-03-19T05:35:04.390Z,53.10
2019-03-19T05:35:35.620Z,53.10
2019-03-19T05:36:06.788Z,53.10
2019-03-19T05:36:37.975Z,53.10
2019-03-19T05:37:09.151Z,53.10
2019-03-19T05:37:40.336Z,53.10
2019-03-19T05:38:11.520Z,53.10
2019-03-19T05:38:43.046Z,53.10
2019-03-19T05:39:14.220Z,53.10
2019-03-19T05:39:45.412Z,53.10
2019-03-19T05:40:16.600Z,53.10
2019-03-19T05:40:48.130Z,53.10
2019-03-19T05:41:19.325Z,53.10
2019-03-19T05:41:50.496Z,53.20
2019-03-19T05:42:21.722Z,53.20
2019-03-19T05:42:52.932Z,53.20
2019-03-19T05:43:24.121Z,53.20
2019-03-19T05:43:55.609Z,53.20
2019-03-19T05:44:27.171Z,53.20
2019-03-19T05:44:58.425Z,53.10
2019-03-19T05:45:29.617Z,53.10
2019-03-19T05:46:00.797Z,53.10
2019-03-19T05:46:31.968Z,53.70
2019-03-19T05:47:03.477Z,53.20
2019-03-19T05:47:37.500Z,53.10
2019-03-19T05:48:07.558Z,53.10
2019-03-19T05:48:38.734Z,53.00
2019-03-19T05:49:09.938Z,53.10
2019-03-19T05:49:41.154Z,53.10
2019-03-19T05:50:12.323Z,53.00
2019-03-19T05:50:43.515Z,53.10
2019-03-19T05:51:14.987Z,53.00
2019-03-19T05:51:46.170Z,53.00
2019-03-19T05:52:17.341Z,53.00
2019-03-19T05:52:48.984Z,53.00
2019-03-19T05:53:20.630Z,53.00
2019-03-19T05:53:51.815Z,53.00
2019-03-19T05:54:23.006Z,53.00
2019-03-19T05:54:54.186Z,53.00
2019-03-19T05:55:25.355Z,53.00
2019-03-19T05:55:56.888Z,53.50
2019-03-19T05:56:28.135Z,53.00
2019-03-19T05:56:59.656Z,53.10
2019-03-19T05:57:30.855Z,53.00
2019-03-19T05:58:02.028Z,53.00
2019-03-19T05:58:33.207Z,53.00
2019-03-19T05:59:04.717Z,53.00
2019-03-19T05:59:36.232Z,53.00
2019-03-19T06:00:07.416Z,53.10
2019-03-19T06:00:38.597Z,53.10
2019-03-19T06:01:09.772Z,53.10
2019-03-19T06:01:40.973Z,53.10
2019-03-19T06:02:12.206Z,53.10
2019-03-19T06:02:43.405Z,53.10
2019-03-19T06:03:14.577Z,53.10
2019-03-19T06:03:45.758Z,53.20
2019-03-19T06:04:16.924Z,53.10
2019-03-19T06:04:48.240Z,53.20
2019-03-19T06:05:21.107Z,53.20
2019-03-19T06:05:52.341Z,53.20
2019-03-19T06:06:23.521Z,53.20
2019-03-19T06:06:54.729Z,53.20
2019-03-19T06:07:25.994Z,53.20
2019-03-19T06:07:57.181Z,53.10
2019-03-19T06:08:28.353Z,53.10
2019-03-19T06:08:59.842Z,53.10
2019-03-19T06:09:31.026Z,53.10
2019-03-19T06:10:02.219Z,53.00
2019-03-19T06:10:33.405Z,53.00
2019-03-19T06:11:04.598Z,53.00
2019-03-19T06:11:35.838Z,53.00
2019-03-19T06:12:07.043Z,53.00
2019-03-19T06:12:38.219Z,53.00
2019-03-19T06:13:09.414Z,53.00
2019-03-19T06:13:40.591Z,53.00
2019-03-19T06:14:11.757Z,53.00
2019-03-19T06:14:42.935Z,52.90
2019-03-19T06:15:14.195Z,52.90
2019-03-19T06:15:45.391Z,52.90
2019-03-19T06:16:16.572Z,53.00
2019-03-19T06:16:48.119Z,52.90
2019-03-19T06:17:19.288Z,53.00
2019-03-19T06:17:50.464Z,52.90
2019-03-19T06:18:21.638Z,52.90
2019-03-19T06:18:52.812Z,53.00
2019-03-19T06:19:23.988Z,52.90
2019-03-19T06:19:55.196Z,53.00
2019-03-19T06:20:26.776Z,53.00
2019-03-19T06:20:57.948Z,53.00
2019-03-19T06:21:29.152Z,53.00
2019-03-19T06:22:00.386Z,53.00
2019-03-19T06:22:31.565Z,53.00
2019-03-19T06:23:02.746Z,53.00
2019-03-19T06:23:34.285Z,53.00
2019-03-19T06:24:05.462Z,53.00
2019-03-19T06:24:36.636Z,53.00
2019-03-19T06:25:07.851Z,53.00
2019-03-19T06:25:39.027Z,53.00
2019-03-19T06:26:10.205Z,53.00
2019-03-19T06:26:41.388Z,53.00
2019-03-19T06:27:12.664Z,53.00
2019-03-19T06:27:43.841Z,53.00
2019-03-19T06:28:15.037Z,53.00
2019-03-19T06:28:46.222Z,53.00
2019-03-19T06:29:17.402Z,53.00
2019-03-19T06:29:48.573Z,53.00
2019-03-19T06:30:19.758Z,53.00
2019-03-19T06:30:50.986Z,52.90
2019-03-19T06:31:22.206Z,52.90
2019-03-19T06:31:53.384Z,52.90
2019-03-19T06:32:24.554Z,53.00
2019-03-19T06:32:55.758Z,52.90
2019-03-19T06:33:26.927Z,53.00
2019-03-19T06:33:58.102Z,52.90
2019-03-19T06:34:29.611Z,53.00
2019-03-19T06:35:00.795Z,52.90
2019-03-19T06:35:31.975Z,52.90
2019-03-19T06:36:03.183Z,52.90
2019-03-19T06:36:34.359Z,53.00
2019-03-19T06:37:05.535Z,53.00
2019-03-19T06:37:36.708Z,52.90
2019-03-19T06:38:08.237Z,52.90
2019-03-19T06:38:39.407Z,52.90
2019-03-19T06:39:10.587Z,52.90
2019-03-19T06:39:41.799Z,52.90
2019-03-19T06:40:12.980Z,53.00
2019-03-19T06:40:44.614Z,52.90
2019-03-19T06:41:15.784Z,52.90
2019-03-19T06:41:46.969Z,52.90
2019-03-19T06:42:18.160Z,52.90